Terminal Aerodrome Forecast
Issued by NWS

Home | Current Version | Previous Version | Text Only | Print | Product List | Glossary On
Versions: 1 2 3 4 5 6 7 8 9 10 11 12 13 14 15 16 17 18 19 20 21 22 23 24 25 26 27 28 29 30 31 32 33 34 35 36 37 38 39 40 41 42 43 44 45
000
FTAK31 PAFA 271735 CCA
TAFASC
TAF COR
PASC 271735Z 2718/2818 24030KT 1/2SM -SN BLSN VV015
      TEMPO 2720/2722 24018KT 2SM BLSN
     FM272200 25016KT 3SM -SN BR BKN025
     FM280100 27013KT 5SM -SN BR BKN025=

USA.gov is the U.S. government's official web portal to all federal, state and local government web resources and services.